Terminal Aerodrome Forecast
Issued by NWS Bismarck, ND

Home | Current Version | Previous Version | Graphics & Text | Print | Product List | Glossary On
Versions: 1 2 3 4 5 6 7 8 9 10 11 12 13 14 15
037
FTUS43 KBIS 262011 AAA
TAFBIS
TAF AMD
KBIS 262011Z 2620/2718 35010KT P6SM BKN035
     FM270100 02009KT P6SM BKN028
     FM270800 02005KT P6SM BKN015
     FM271500 01005KT P6SM SCT020=

USA.gov is the U.S. government's official web portal to all federal, state and local government web resources and services.